Time;durP1;ratioP1;P1;durP2;ratioP2;P2;SDS_P1;SDS_P2;PMS_P1;PMS_P2;Temp;Humidity;BMP_temperature;BMP_pressure;BME280_temperature;BME280_humidity;BME280_pressure;Samples;Min_cycle;Max_cycle;Signal;HPM_P1;HPM_P2
2021/07/24 00:01:23;;;;;;;98.10;77.12;;;;;;;;;;4430540;32;20127;-84
2021/07/24 00:03:52;;;;;;;131.82;84.50;;;;;;;;;;4439181;32;20061;-84
2021/07/24 00:06:32;;;;;;;128.55;81.55;;;;;;;;;;4436637;32;20057;-84
2021/07/24 00:09:04;;;;;;;122.07;79.30;;;;;;;;;;4434062;32;20073;-85
2021/07/24 00:11:32;;;;;;;135.70;81.12;;;;;;;;;;4432802;32;20081;-84
2021/07/24 00:14:01;;;;;;;139.48;82.15;;;;;;;;;;4436990;32;20156;-84
2021/07/24 00:16:30;;;;;;;108.68;74.00;;;;;;;;;;4439825;32;20042;-84
2021/07/24 00:18:59;;;;;;;110.00;73.35;;;;;;;;;;4431303;32;20050;-84
2021/07/24 00:21:28;;;;;;;116.32;75.47;;;;;;;;;;4439147;32;20472;-84
2021/07/24 00:23:56;;;;;;;119.70;77.05;;;;;;;;;;4435508;32;20068;-84
2021/07/24 00:26:24;;;;;;;122.35;77.07;;;;;;;;;;4440722;32;20042;-83
2021/07/24 00:28:54;;;;;;;116.18;84.87;;;;;;;;;;4435805;32;20090;-84
2021/07/24 00:31:23;;;;;;;119.80;86.97;;;;;;;;;;4438106;32;20056;-84
2021/07/24 00:33:52;;;;;;;124.70;85.50;;;;;;;;;;4440756;32;20107;-84
2021/07/24 00:36:20;;;;;;;117.45;88.75;;;;;;;;;;4437424;32;20073;-85
2021/07/24 00:38:49;;;;;;;121.43;89.32;;;;;;;;;;4442927;32;20103;-84
2021/07/24 00:41:25;;;;;;;113.40;81.12;;;;;;;;;;4427470;32;20042;-84
2021/07/24 00:43:54;;;;;;;130.85;90.85;;;;;;;;;;4437381;32;20560;-84
2021/07/24 00:46:23;;;;;;;138.75;90.87;;;;;;;;;;4438203;32;20064;-84
2021/07/24 00:48:53;;;;;;;139.57;90.40;;;;;;;;;;4438529;32;20464;-83
2021/07/24 00:51:26;;;;;;;138.12;90.78;;;;;;;;;;4438893;32;20049;-83
2021/07/24 00:53:57;;;;;;;132.50;90.97;;;;;;;;;;4433436;32;20053;-84
2021/07/24 00:56:27;;;;;;;130.40;90.30;;;;;;;;;;4439313;32;20078;-84
2021/07/24 00:58:55;;;;;;;139.68;92.10;;;;;;;;;;4441280;32;20049;-84
2021/07/24 01:01:25;;;;;;;137.32;92.05;;;;;;;;;;4437398;32;20437;-84
2021/07/24 01:03:54;;;;;;;113.97;80.03;;;;;;;;;;4436528;32;20064;-83
2021/07/24 01:06:23;;;;;;;118.85;89.90;;;;;;;;;;4434923;32;20092;-84
2021/07/24 01:08:52;;;;;;;115.40;84.15;;;;;;;;;;4435592;32;20105;-84
2021/07/24 01:11:21;;;;;;;114.95;83.22;;;;;;;;;;4440559;32;20089;-85
2021/07/24 01:13:50;;;;;;;113.28;81.37;;;;;;;;;;4433699;32;20042;-83
2021/07/24 01:16:19;;;;;;;103.80;78.03;;;;;;;;;;4434593;32;20112;-84
2021/07/24 01:18:49;;;;;;;130.05;82.20;;;;;;;;;;4440227;32;20046;-85
2021/07/24 01:21:25;;;;;;;117.55;78.05;;;;;;;;;;4441071;32;20046;-84
2021/07/24 01:23:55;;;;;;;105.85;72.20;;;;;;;;;;4433329;32;20046;-84
2021/07/24 01:26:32;;;;;;;110.72;71.97;;;;;;;;;;4437283;32;20718;-84
2021/07/24 01:29:02;;;;;;;109.00;75.87;;;;;;;;;;4441252;32;20050;-84
2021/07/24 01:31:31;;;;;;;108.40;77.25;;;;;;;;;;4438489;32;20092;-84
2021/07/24 01:34:01;;;;;;;108.55;74.62;;;;;;;;;;4436182;32;20081;-84
2021/07/24 01:36:30;;;;;;;104.60;74.30;;;;;;;;;;4434766;32;20712;-84
2021/07/24 01:38:58;;;;;;;112.97;76.47;;;;;;;;;;4435528;32;20049;-83
2021/07/24 01:41:27;;;;;;;129.12;86.15;;;;;;;;;;4436216;32;20050;-84
2021/07/24 01:43:57;;;;;;;95.97;77.68;;;;;;;;;;4436401;32;20410;-84
2021/07/24 01:46:25;;;;;;;108.00;78.15;;;;;;;;;;4436431;32;20196;-85
2021/07/24 01:54:40;;;;;;;94.82;78.70;;;;;;;;;;4434605;32;20046;-84
2021/07/24 01:57:10;;;;;;;121.78;84.55;;;;;;;;;;4436982;32;20358;-85
2021/07/24 01:59:42;;;;;;;129.55;85.78;;;;;;;;;;4441614;32;20148;-84
2021/07/24 02:02:14;;;;;;;131.25;85.40;;;;;;;;;;4429832;32;20099;-84
2021/07/24 02:04:49;;;;;;;133.45;84.93;;;;;;;;;;4433172;32;20135;-85
2021/07/24 02:07:20;;;;;;;128.98;84.57;;;;;;;;;;4442818;32;20410;-84
2021/07/24 02:09:50;;;;;;;111.55;73.93;;;;;;;;;;4439566;32;20041;-84
2021/07/24 02:12:19;;;;;;;106.28;73.18;;;;;;;;;;4442984;32;20030;-85
2021/07/24 02:14:49;;;;;;;109.28;73.50;;;;;;;;;;4434915;32;20045;-83
2021/07/24 02:17:17;;;;;;;114.50;73.35;;;;;;;;;;4443583;32;20416;-84
2021/07/24 02:19:47;;;;;;;114.03;77.05;;;;;;;;;;4435025;32;20068;-84
2021/07/24 02:22:16;;;;;;;116.90;79.22;;;;;;;;;;4432545;32;20053;-84
2021/07/24 02:24:45;;;;;;;100.97;77.10;;;;;;;;;;4434582;32;20072;-84
2021/07/24 02:27:15;;;;;;;98.72;76.05;;;;;;;;;;4441484;32;20544;-84
2021/07/24 02:29:45;;;;;;;108.93;78.65;;;;;;;;;;4438856;32;20094;-85
2021/07/24 02:32:13;;;;;;;98.53;82.90;;;;;;;;;;4444653;32;20132;-82
2021/07/24 02:34:41;;;;;;;108.10;74.05;;;;;;;;;;4435707;32;20034;-85
2021/07/24 02:37:11;;;;;;;126.53;84.43;;;;;;;;;;4441866;32;20587;-84
2021/07/24 02:39:40;;;;;;;133.50;84.18;;;;;;;;;;4443962;32;20917;-83
2021/07/24 02:42:08;;;;;;;135.35;84.35;;;;;;;;;;4444892;32;20038;-84
2021/07/24 02:44:37;;;;;;;124.95;83.03;;;;;;;;;;4434264;32;20050;-83
2021/07/24 02:47:07;;;;;;;105.68;72.62;;;;;;;;;;4433057;32;20042;-85
2021/07/24 02:49:35;;;;;;;111.93;74.72;;;;;;;;;;4441716;32;20071;-84
2021/07/24 02:52:05;;;;;;;115.32;74.70;;;;;;;;;;4432703;32;20050;-84
2021/07/24 02:54:35;;;;;;;102.00;72.97;;;;;;;;;;4432138;32;20030;-84
2021/07/24 02:57:04;;;;;;;108.75;72.70;;;;;;;;;;4441306;32;20070;-85
2021/07/24 02:59:33;;;;;;;114.62;81.60;;;;;;;;;;4441637;32;20112;-85
2021/07/24 03:02:02;;;;;;;102.12;81.32;;;;;;;;;;4438511;32;20088;-84
2021/07/24 03:04:31;;;;;;;101.20;81.50;;;;;;;;;;4437276;32;20102;-84
2021/07/24 03:06:59;;;;;;;106.55;81.15;;;;;;;;;;4437450;32;20650;-84
2021/07/24 03:09:28;;;;;;;89.22;75.28;;;;;;;;;;4432641;32;20646;-84
2021/07/24 03:20:44;;;;;;;109.72;71.20;;;;;;;;;;4367674;27;20124;-83
2021/07/24 11:44:30;;;;;;;20.58;8.68;;;;;;;;;;4335010;28;20042;-84
2021/07/24 11:46:59;;;;;;;15.23;3.67;;;;;;;;;;4263571;33;20067;-84
2021/07/24 11:49:29;;;;;;;19.00;4.62;;;;;;;;;;4260590;33;20057;-84
2021/07/24 11:51:57;;;;;;;17.92;3.87;;;;;;;;;;4262921;33;20085;-84
2021/07/24 11:54:29;;;;;;;22.58;4.65;;;;;;;;;;4259583;33;20441;-84
2021/07/24 11:56:57;;;;;;;20.92;4.40;;;;;;;;;;4265148;33;20045;-84
2021/07/24 11:59:30;;;;;;;35.78;5.32;;;;;;;;;;4246428;33;20124;-84
2021/07/24 12:01:59;;;;;;;17.12;3.55;;;;;;;;;;4250154;33;20041;-84
2021/07/24 12:04:28;;;;;;;15.93;3.72;;;;;;;;;;4260184;33;20045;-84
2021/07/24 12:07:01;;;;;;;16.10;4.07;;;;;;;;;;4265137;33;20197;-84
2021/07/24 12:09:30;;;;;;;20.55;4.43;;;;;;;;;;4261364;33;20128;-84
2021/07/24 12:12:00;;;;;;;17.10;3.75;;;;;;;;;;4251837;33;20061;-84
2021/07/24 12:14:29;;;;;;;14.15;3.60;;;;;;;;;;4259306;33;20053;-84
2021/07/24 12:17:16;;;;;;;19.67;4.80;;;;;;;;;;4265029;33;20049;-84
2021/07/24 12:19:46;;;;;;;16.48;4.25;;;;;;;;;;4259554;33;20489;-84
2021/07/24 12:22:27;;;;;;;18.42;4.47;;;;;;;;;;4266966;33;20046;-84
2021/07/24 12:25:11;;;;;;;17.42;4.10;;;;;;;;;;4265589;33;20418;-84
2021/07/24 12:27:49;;;;;;;17.33;3.80;;;;;;;;;;4253403;33;20054;-84
2021/07/24 12:30:27;;;;;;;18.52;4.30;;;;;;;;;;4264875;33;20046;-84
2021/07/24 12:33:02;;;;;;;18.73;3.78;;;;;;;;;;4258897;33;20129;-84
2021/07/24 12:35:39;;;;;;;16.98;4.28;;;;;;;;;;4264682;33;20095;-84
2021/07/24 12:38:08;;;;;;;13.38;3.72;;;;;;;;;;4268168;33;20129;-83
2021/07/24 12:40:36;;;;;;;16.42;4.37;;;;;;;;;;4265380;33;20124;-83
2021/07/24 12:43:12;;;;;;;15.65;3.80;;;;;;;;;;4267665;33;20046;-84
2021/07/24 12:45:41;;;;;;;19.85;4.35;;;;;;;;;;4263537;33;20053;-84
2021/07/24 12:48:16;;;;;;;16.20;4.22;;;;;;;;;;4268239;33;20045;-84
2021/07/24 12:51:04;;;;;;;14.15;4.00;;;;;;;;;;4253401;33;20454;-84
2021/07/24 12:53:33;;;;;;;13.35;3.47;;;;;;;;;;4263723;33;20076;-84
2021/07/24 12:56:02;;;;;;;21.08;4.45;;;;;;;;;;4265180;33;20188;-84
2021/07/24 12:58:30;;;;;;;19.10;3.90;;;;;;;;;;4266948;33;20105;-84
2021/07/24 13:01:07;;;;;;;20.73;4.95;;;;;;;;;;4266224;33;20053;-85
2021/07/24 13:03:37;;;;;;;15.00;4.62;;;;;;;;;;4255829;33;20405;-84
2021/07/24 13:06:05;;;;;;;18.87;4.87;;;;;;;;;;4266773;33;20045;-84
2021/07/24 13:08:34;;;;;;;20.40;4.22;;;;;;;;;;4266487;33;20501;-84
2021/07/24 13:11:03;;;;;;;25.90;4.50;;;;;;;;;;4264715;33;20089;-84
2021/07/24 13:13:31;;;;;;;14.87;3.70;;;;;;;;;;4266993;33;20050;-84
2021/07/24 13:16:00;;;;;;;11.10;3.15;;;;;;;;;;4265794;33;20101;-85
2021/07/24 13:18:30;;;;;;;21.90;4.57;;;;;;;;;;4266752;33;20068;-84
2021/07/24 13:20:58;;;;;;;11.07;3.47;;;;;;;;;;4267098;33;20075;-84
2021/07/24 13:23:27;;;;;;;26.67;5.62;;;;;;;;;;4254442;33;20045;-84
2021/07/24 13:28:44;;;;;;;12.75;3.70;;;;;;;;;;4222796;33;20829;-84
2021/07/24 13:31:13;;;;;;;16.90;3.80;;;;;;;;;;4252911;33;20154;-83
2021/07/24 13:33:41;;;;;;;16.62;3.92;;;;;;;;;;4252785;33;20381;-83
2021/07/24 13:36:12;;;;;;;18.83;4.28;;;;;;;;;;4257716;33;20049;-83
2021/07/24 13:38:41;;;;;;;25.52;4.95;;;;;;;;;;4265330;33;20073;-84
2021/07/24 13:41:11;;;;;;;19.52;3.97;;;;;;;;;;4267148;33;20076;-85
2021/07/24 13:43:39;;;;;;;16.17;3.97;;;;;;;;;;4265524;33;20053;-83
2021/07/24 13:46:08;;;;;;;18.95;4.47;;;;;;;;;;4263811;33;20057;-84
2021/07/24 13:48:37;;;;;;;21.02;3.97;;;;;;;;;;4264728;33;20130;-84
2021/07/24 13:51:06;;;;;;;17.98;3.55;;;;;;;;;;4253323;33;20076;-84
2021/07/24 13:53:35;;;;;;;15.50;3.58;;;;;;;;;;4252891;33;20046;-84
2021/07/24 13:56:03;;;;;;;18.67;4.85;;;;;;;;;;4256345;33;20192;-85
2021/07/24 13:58:31;;;;;;;16.27;4.50;;;;;;;;;;4265394;33;20046;-84
2021/07/24 14:01:00;;;;;;;21.15;4.40;;;;;;;;;;4265551;33;20413;-84
2021/07/24 14:03:30;;;;;;;14.90;4.05;;;;;;;;;;4264757;33;20104;-84
2021/07/24 14:05:59;;;;;;;27.85;5.28;;;;;;;;;;4264204;33;20076;-84
2021/07/24 14:08:27;;;;;;;19.65;4.60;;;;;;;;;;4267011;33;20053;-84
2021/07/24 14:10:56;;;;;;;14.40;3.83;;;;;;;;;;4264951;33;20053;-84
2021/07/24 14:13:25;;;;;;;18.05;4.10;;;;;;;;;;4267119;33;20045;-84
2021/07/24 14:15:54;;;;;;;14.38;3.90;;;;;;;;;;4263982;33;20057;-84
2021/07/24 14:18:27;;;;;;;20.37;5.45;;;;;;;;;;4243575;33;20054;-84
2021/07/24 14:20:56;;;;;;;29.17;4.78;;;;;;;;;;4262384;33;20050;-84
2021/07/24 14:23:25;;;;;;;17.00;3.83;;;;;;;;;;4265635;33;20058;-84
2021/07/24 14:25:55;;;;;;;18.12;3.97;;;;;;;;;;4264850;33;20053;-84
2021/07/24 14:28:23;;;;;;;14.57;4.03;;;;;;;;;;4264534;33;20144;-84
2021/07/24 14:30:52;;;;;;;24.08;5.90;;;;;;;;;;4263236;33;20045;-83
2021/07/24 14:33:24;;;;;;;16.45;4.43;;;;;;;;;;4252721;33;20449;-83
2021/07/24 14:35:53;;;;;;;19.58;4.70;;;;;;;;;;4256204;33;21832;-84
2021/07/24 14:38:21;;;;;;;18.37;4.37;;;;;;;;;;4247241;33;20061;-84
2021/07/24 14:40:56;;;;;;;15.02;4.75;;;;;;;;;;4243059;33;20152;-85
2021/07/24 14:43:25;;;;;;;62.80;7.87;;;;;;;;;;4232642;33;20406;-85
2021/07/24 14:45:54;;;;;;;22.15;5.20;;;;;;;;;;4242907;33;20152;-84
2021/07/24 14:48:23;;;;;;;20.83;4.95;;;;;;;;;;4249065;33;20478;-85
2021/07/24 14:50:52;;;;;;;11.95;3.47;;;;;;;;;;4247353;33;20156;-85
2021/07/24 14:53:20;;;;;;;17.23;4.53;;;;;;;;;;4251577;33;20101;-84
2021/07/24 14:55:51;;;;;;;18.10;4.85;;;;;;;;;;4240820;33;20504;-84
2021/07/24 14:58:20;;;;;;;15.07;4.35;;;;;;;;;;4257491;33;20109;-84
2021/07/24 15:00:48;;;;;;;26.92;6.60;;;;;;;;;;4259150;33;20050;-85
2021/07/24 15:03:17;;;;;;;19.65;5.12;;;;;;;;;;4245436;33;20114;-84
2021/07/24 15:05:46;;;;;;;18.55;4.80;;;;;;;;;;4257808;33;20239;-84
2021/07/24 15:08:15;;;;;;;16.12;4.35;;;;;;;;;;4259125;33;20068;-84
2021/07/24 15:10:43;;;;;;;18.08;6.40;;;;;;;;;;4257863;33;20085;-84
2021/07/24 15:13:13;;;;;;;25.23;6.18;;;;;;;;;;4260886;33;20129;-84
2021/07/24 15:15:44;;;;;;;22.33;8.15;;;;;;;;;;4261587;33;20565;-84
2021/07/24 15:18:12;;;;;;;20.58;5.43;;;;;;;;;;4260114;33;20774;-84
2021/07/24 15:20:41;;;;;;;18.77;6.43;;;;;;;;;;4255348;33;20583;-84
2021/07/24 15:23:09;;;;;;;15.82;5.68;;;;;;;;;;4263338;33;20103;-84
2021/07/24 15:25:38;;;;;;;22.60;8.70;;;;;;;;;;4259408;33;20049;-84
2021/07/24 15:28:07;;;;;;;25.55;10.63;;;;;;;;;;4247909;33;20121;-84
2021/07/24 15:30:35;;;;;;;24.10;12.77;;;;;;;;;;4253212;33;20117;-84
2021/07/24 15:33:04;;;;;;;23.23;10.82;;;;;;;;;;4264907;33;20070;-85
2021/07/24 15:35:32;;;;;;;17.23;6.10;;;;;;;;;;4260928;33;20065;-84
2021/07/24 15:38:01;;;;;;;19.45;5.57;;;;;;;;;;4258993;33;20054;-85
2021/07/24 15:40:30;;;;;;;16.33;5.37;;;;;;;;;;4255201;33;20512;-84
2021/07/24 15:42:58;;;;;;;13.75;5.22;;;;;;;;;;4261339;33;20066;-84
2021/07/24 15:45:27;;;;;;;27.15;12.02;;;;;;;;;;4263187;33;20071;-85
2021/07/24 15:47:56;;;;;;;27.98;22.37;;;;;;;;;;4265283;33;20077;-85
2021/07/24 15:50:26;;;;;;;22.48;9.75;;;;;;;;;;4245518;33;20213;-85
2021/07/24 15:52:54;;;;;;;22.73;9.45;;;;;;;;;;4265277;33;20402;-84
2021/07/24 15:55:24;;;;;;;26.85;9.77;;;;;;;;;;4260427;33;20108;-85
2021/07/24 15:57:52;;;;;;;25.48;13.82;;;;;;;;;;4265374;33;20065;-83
2021/07/24 16:00:21;;;;;;;19.83;7.32;;;;;;;;;;4258921;33;20520;-84
2021/07/24 16:02:49;;;;;;;31.12;28.23;;;;;;;;;;4261057;33;20666;-85
2021/07/24 16:05:18;;;;;;;28.73;25.62;;;;;;;;;;4255995;33;20057;-84
2021/07/24 16:07:46;;;;;;;27.15;19.60;;;;;;;;;;4263801;33;20866;-85
2021/07/24 16:10:19;;;;;;;20.37;10.98;;;;;;;;;;4259883;33;20206;-84
2021/07/24 16:12:47;;;;;;;36.78;32.47;;;;;;;;;;4251352;33;20046;-85
2021/07/24 16:15:23;;;;;;;33.70;13.98;;;;;;;;;;4242156;33;20765;-84
2021/07/24 16:17:52;;;;;;;20.77;11.52;;;;;;;;;;4260560;33;20045;-83
2021/07/24 16:20:24;;;;;;;28.62;9.13;;;;;;;;;;4255602;33;20124;-84
2021/07/24 16:22:53;;;;;;;28.35;13.25;;;;;;;;;;4249887;33;20046;-85
2021/07/24 16:25:21;;;;;;;18.48;9.57;;;;;;;;;;4259926;33;20170;-84
2021/07/24 16:27:49;;;;;;;22.58;10.38;;;;;;;;;;4258221;33;20053;-84
2021/07/24 16:30:18;;;;;;;26.52;13.98;;;;;;;;;;4257788;33;20050;-84
2021/07/24 16:32:47;;;;;;;23.33;14.82;;;;;;;;;;4245489;33;20042;-85
2021/07/24 16:35:16;;;;;;;28.67;22.02;;;;;;;;;;4255793;33;21010;-85
2021/07/24 16:37:44;;;;;;;29.70;22.83;;;;;;;;;;4261209;33;20506;-84
2021/07/24 16:40:14;;;;;;;34.35;24.75;;;;;;;;;;4254309;33;20425;-83
2021/07/24 16:42:42;;;;;;;26.65;19.75;;;;;;;;;;4262786;33;20042;-84
2021/07/24 16:45:11;;;;;;;21.30;14.10;;;;;;;;;;4254095;33;20139;-84
2021/07/24 16:47:39;;;;;;;39.45;23.17;;;;;;;;;;4260730;33;20053;-84
2021/07/24 16:50:11;;;;;;;41.67;31.12;;;;;;;;;;4255773;33;20050;-85
2021/07/24 16:52:39;;;;;;;44.55;28.45;;;;;;;;;;4250111;33;20161;-84
2021/07/24 16:55:09;;;;;;;43.05;32.50;;;;;;;;;;4257977;33;20046;-84
2021/07/24 16:57:40;;;;;;;36.17;26.35;;;;;;;;;;4256601;33;20099;-84
2021/07/24 17:00:08;;;;;;;53.78;39.65;;;;;;;;;;4259291;33;20054;-84
2021/07/24 17:02:37;;;;;;;38.00;29.60;;;;;;;;;;4257428;33;20046;-85
2021/07/24 17:05:06;;;;;;;36.90;32.75;;;;;;;;;;4259881;33;20045;-84
2021/07/24 17:07:34;;;;;;;43.08;35.97;;;;;;;;;;4262747;33;20089;-85
2021/07/24 17:10:04;;;;;;;40.12;24.15;;;;;;;;;;4263330;33;20129;-84
2021/07/24 17:12:32;;;;;;;20.25;17.02;;;;;;;;;;4267824;33;20045;-84
2021/07/24 17:15:01;;;;;;;29.58;22.65;;;;;;;;;;4250089;33;20072;-84
2021/07/24 17:17:29;;;;;;;31.77;24.40;;;;;;;;;;4260797;33;20456;-85
2021/07/24 17:19:58;;;;;;;24.70;20.05;;;;;;;;;;4247912;33;20097;-84
2021/07/24 17:22:26;;;;;;;26.48;15.85;;;;;;;;;;4253604;33;20543;-84
2021/07/24 17:24:55;;;;;;;19.65;12.35;;;;;;;;;;4259604;33;20085;-85
2021/07/24 17:27:24;;;;;;;23.05;13.35;;;;;;;;;;4256342;33;20109;-84
2021/07/24 17:29:52;;;;;;;27.95;16.73;;;;;;;;;;4263925;33;20057;-85
2021/07/24 17:32:21;;;;;;;22.30;19.02;;;;;;;;;;4263598;33;20065;-85
2021/07/24 17:34:50;;;;;;;23.15;16.05;;;;;;;;;;4259803;33;20125;-84
2021/07/24 17:37:18;;;;;;;35.13;20.10;;;;;;;;;;4259869;33;20109;-84
2021/07/24 17:39:47;;;;;;;35.60;25.08;;;;;;;;;;4260906;33;20433;-84
2021/07/24 17:42:15;;;;;;;25.15;18.95;;;;;;;;;;4248245;33;20085;-85
2021/07/24 17:44:44;;;;;;;33.10;28.02;;;;;;;;;;4245861;33;20045;-85
2021/07/24 17:47:13;;;;;;;29.92;26.75;;;;;;;;;;4257622;33;20113;-85
2021/07/24 17:49:41;;;;;;;34.17;24.42;;;;;;;;;;4247210;33;20402;-85
2021/07/24 17:52:09;;;;;;;35.63;27.33;;;;;;;;;;4260817;33;20377;-84
2021/07/24 17:54:38;;;;;;;37.38;31.23;;;;;;;;;;4261595;33;20049;-85
2021/07/24 17:57:07;;;;;;;44.95;33.13;;;;;;;;;;4261814;33;20444;-84
2021/07/24 17:59:35;;;;;;;49.35;40.80;;;;;;;;;;4259333;33;20516;-84
2021/07/24 18:02:04;;;;;;;61.08;49.63;;;;;;;;;;4263097;33;20076;-84
2021/07/24 18:04:33;;;;;;;54.75;49.35;;;;;;;;;;4238204;33;20066;-84
2021/07/24 18:07:01;;;;;;;88.72;80.28;;;;;;;;;;4261917;33;20089;-82
2021/07/24 18:09:30;;;;;;;91.20;82.07;;;;;;;;;;4260956;33;20054;-85
2021/07/24 18:11:59;;;;;;;116.65;104.68;;;;;;;;;;4261219;33;20526;-84
2021/07/24 18:14:27;;;;;;;160.50;141.23;;;;;;;;;;4261304;33;20108;-85
2021/07/24 18:16:56;;;;;;;195.73;160.02;;;;;;;;;;4260121;33;20088;-84
2021/07/24 18:19:25;;;;;;;200.50;164.50;;;;;;;;;;4243692;33;20108;-84
2021/07/24 18:21:53;;;;;;;157.77;141.35;;;;;;;;;;4262816;33;20568;-84
2021/07/24 18:24:21;;;;;;;213.85;152.98;;;;;;;;;;4257618;33;20121;-85
2021/07/24 18:26:50;;;;;;;202.98;144.20;;;;;;;;;;4259933;33;20137;-84
2021/07/24 18:29:21;;;;;;;188.12;146.00;;;;;;;;;;4257449;33;20366;-84
2021/07/24 18:31:49;;;;;;;185.50;144.27;;;;;;;;;;4264475;33;20049;-84
2021/07/24 18:34:21;;;;;;;238.70;166.73;;;;;;;;;;4264009;33;20084;-84
2021/07/24 18:36:49;;;;;;;233.85;165.62;;;;;;;;;;4263288;33;20049;-84
2021/07/24 18:39:18;;;;;;;195.65;128.00;;;;;;;;;;4260415;33;20109;-84
2021/07/24 18:41:47;;;;;;;191.70;122.82;;;;;;;;;;4263332;33;20045;-83
2021/07/24 18:44:15;;;;;;;185.98;118.68;;;;;;;;;;4262762;33;20160;-84
2021/07/24 18:46:44;;;;;;;203.23;130.00;;;;;;;;;;4258189;33;20113;-85
2021/07/24 18:49:14;;;;;;;226.70;141.02;;;;;;;;;;4243585;33;20136;-83
2021/07/24 18:51:42;;;;;;;220.27;144.43;;;;;;;;;;4256317;33;20072;-83
2021/07/24 18:54:11;;;;;;;221.55;144.25;;;;;;;;;;4249948;33;20655;-84
2021/07/24 18:56:39;;;;;;;166.98;115.68;;;;;;;;;;4252164;33;20049;-84
2021/07/24 18:59:08;;;;;;;182.25;125.82;;;;;;;;;;4249648;33;20072;-85
2021/07/24 19:01:37;;;;;;;163.68;116.18;;;;;;;;;;4241269;33;20525;-85
2021/07/24 19:04:05;;;;;;;155.07;116.55;;;;;;;;;;4254027;33;20637;-84
2021/07/24 19:06:34;;;;;;;158.12;114.57;;;;;;;;;;4244563;33;20086;-85
2021/07/24 19:09:04;;;;;;;123.82;106.50;;;;;;;;;;4246255;33;20050;-84
2021/07/24 19:11:32;;;;;;;147.80;115.62;;;;;;;;;;4263779;33;20058;-84
2021/07/24 19:14:01;;;;;;;181.82;120.68;;;;;;;;;;4251690;33;20109;-85
2021/07/24 19:16:30;;;;;;;154.02;110.03;;;;;;;;;;4265884;33;20050;-84
2021/07/24 19:18:58;;;;;;;166.98;112.18;;;;;;;;;;4262488;33;21843;-84
2021/07/24 19:21:27;;;;;;;185.25;120.55;;;;;;;;;;4264448;33;20184;-84
2021/07/24 19:23:56;;;;;;;146.00;104.82;;;;;;;;;;4255138;33;20483;-84
2021/07/24 19:26:29;;;;;;;175.93;114.37;;;;;;;;;;4263234;33;20394;-86
2021/07/24 19:29:01;;;;;;;175.45;115.47;;;;;;;;;;4252525;33;20122;-83
2021/07/24 19:31:29;;;;;;;180.68;117.68;;;;;;;;;;4258901;33;20057;-85
2021/07/24 19:33:58;;;;;;;170.95;109.93;;;;;;;;;;4252223;33;20154;-84
2021/07/24 19:36:28;;;;;;;133.65;103.68;;;;;;;;;;4253599;33;20459;-85
2021/07/24 19:38:56;;;;;;;127.15;100.50;;;;;;;;;;4257327;33;20042;-84
2021/07/24 19:41:25;;;;;;;115.93;95.28;;;;;;;;;;4262584;33;20108;-84
2021/07/24 19:43:54;;;;;;;100.18;87.15;;;;;;;;;;4250119;33;20049;-84
2021/07/24 19:46:23;;;;;;;114.88;90.78;;;;;;;;;;4240572;33;20041;-84
2021/07/24 19:48:55;;;;;;;136.88;101.28;;;;;;;;;;4247856;33;20459;-84
2021/07/24 19:51:24;;;;;;;139.95;97.68;;;;;;;;;;4255511;33;20515;-84
2021/07/24 19:53:53;;;;;;;152.80;105.30;;;;;;;;;;4252636;33;20108;-85
2021/07/24 19:56:22;;;;;;;156.98;105.53;;;;;;;;;;4252209;33;20093;-84
2021/07/24 19:58:51;;;;;;;102.10;78.75;;;;;;;;;;4255998;33;20046;-84
2021/07/24 20:01:20;;;;;;;97.85;77.68;;;;;;;;;;4254439;33;20117;-84
2021/07/24 20:03:49;;;;;;;130.15;87.90;;;;;;;;;;4251299;33;20124;-84
2021/07/24 20:06:18;;;;;;;106.05;79.85;;;;;;;;;;4236998;33;20068;-85
2021/07/24 20:08:46;;;;;;;109.40;80.07;;;;;;;;;;4250872;33;20077;-85
2021/07/24 20:11:15;;;;;;;158.63;103.93;;;;;;;;;;4235316;33;20097;-85
2021/07/24 20:13:44;;;;;;;103.35;85.00;;;;;;;;;;4249828;33;20089;-84
2021/07/24 20:16:12;;;;;;;91.05;81.30;;;;;;;;;;4256776;33;20057;-84
2021/07/24 20:18:41;;;;;;;112.93;90.55;;;;;;;;;;4244042;33;20503;-84
2021/07/24 20:21:10;;;;;;;109.75;87.50;;;;;;;;;;4239907;33;20075;-85
2021/07/24 20:23:39;;;;;;;109.80;89.30;;;;;;;;;;4251755;33;20135;-84
2021/07/24 20:26:07;;;;;;;116.22;92.55;;;;;;;;;;4243354;33;20057;-84
2021/07/24 20:28:36;;;;;;;144.20;95.95;;;;;;;;;;4251905;33;20089;-85
2021/07/24 20:31:05;;;;;;;139.73;94.80;;;;;;;;;;4250813;33;20499;-85
2021/07/24 20:33:36;;;;;;;140.15;94.15;;;;;;;;;;4251637;33;20488;-85
2021/07/24 20:36:07;;;;;;;145.73;95.32;;;;;;;;;;4250716;33;20544;-84
2021/07/24 20:38:35;;;;;;;119.05;80.90;;;;;;;;;;4250997;33;20144;-85
2021/07/24 20:41:05;;;;;;;140.88;93.07;;;;;;;;;;4237411;33;20100;-84
2021/07/24 20:43:33;;;;;;;146.40;94.10;;;;;;;;;;4251312;33;20368;-84
2021/07/24 20:46:02;;;;;;;136.23;93.62;;;;;;;;;;4254894;33;20101;-85
2021/07/24 20:48:32;;;;;;;118.32;83.32;;;;;;;;;;4257526;33;20049;-85
2021/07/24 20:51:00;;;;;;;116.00;86.78;;;;;;;;;;4258034;33;20121;-85
2021/07/24 20:53:29;;;;;;;119.65;94.95;;;;;;;;;;4245985;33;20105;-86
2021/07/24 20:56:02;;;;;;;119.28;94.87;;;;;;;;;;4252028;33;20220;-86
2021/07/24 20:58:30;;;;;;;121.30;95.12;;;;;;;;;;4254803;33;20114;-86
2021/07/24 21:00:59;;;;;;;120.93;101.53;;;;;;;;;;4252648;33;20057;-84
2021/07/24 21:03:29;;;;;;;124.43;95.65;;;;;;;;;;4257391;33;20133;-86
2021/07/24 21:05:59;;;;;;;115.35;86.37;;;;;;;;;;4252239;33;20050;-86
2021/07/24 21:08:27;;;;;;;138.07;100.05;;;;;;;;;;4257708;33;20061;-85
2021/07/24 21:10:56;;;;;;;139.80;98.78;;;;;;;;;;4262954;33;20503;-86
2021/07/24 21:13:25;;;;;;;135.12;95.57;;;;;;;;;;4256227;33;20092;-85
2021/07/24 21:15:55;;;;;;;145.93;97.47;;;;;;;;;;4256621;33;20129;-86
2021/07/24 21:18:26;;;;;;;136.68;94.80;;;;;;;;;;4254574;33;20102;-86
2021/07/24 21:20:56;;;;;;;113.68;84.10;;;;;;;;;;4251996;33;20112;-86
2021/07/24 21:23:24;;;;;;;111.72;83.12;;;;;;;;;;4255721;33;20069;-86
2021/07/24 21:25:53;;;;;;;111.90;82.35;;;;;;;;;;4258380;33;20077;-85
2021/07/24 21:28:21;;;;;;;104.95;78.03;;;;;;;;;;4256684;33;20068;-84
2021/07/24 21:30:55;;;;;;;86.87;72.00;;;;;;;;;;4256842;33;20046;-86
2021/07/24 21:33:23;;;;;;;102.22;85.28;;;;;;;;;;4258028;33;20057;-85
2021/07/24 21:35:52;;;;;;;93.07;82.40;;;;;;;;;;4257921;33;20037;-85
2021/07/24 21:38:21;;;;;;;106.15;84.90;;;;;;;;;;4257055;33;20065;-85
2021/07/24 21:40:50;;;;;;;115.30;85.70;;;;;;;;;;4257122;33;20086;-86
2021/07/24 21:43:18;;;;;;;111.78;76.30;;;;;;;;;;4261028;33;20045;-84
2021/07/24 21:45:47;;;;;;;109.63;73.10;;;;;;;;;;4255409;33;20066;-85
2021/07/24 21:48:17;;;;;;;124.43;87.07;;;;;;;;;;4255565;33;20124;-84
2021/07/24 21:50:48;;;;;;;126.90;90.70;;;;;;;;;;4255832;33;20120;-85
2021/07/24 21:53:24;;;;;;;127.72;93.40;;;;;;;;;;4240840;33;21950;-85
2021/07/24 21:55:53;;;;;;;132.02;90.78;;;;;;;;;;4246845;33;20433;-86
2021/07/24 21:58:22;;;;;;;106.97;77.68;;;;;;;;;;4245232;33;21612;-86
2021/07/24 22:00:51;;;;;;;112.07;77.75;;;;;;;;;;4246675;33;20440;-85
2021/07/24 22:03:20;;;;;;;106.00;76.68;;;;;;;;;;4256891;33;20089;-85
2021/07/24 22:05:49;;;;;;;112.53;76.30;;;;;;;;;;4256921;33;20091;-85
2021/07/24 22:08:18;;;;;;;99.15;81.45;;;;;;;;;;4263216;33;20080;-85
2021/07/24 22:10:46;;;;;;;88.45;78.70;;;;;;;;;;4254862;33;20078;-85
2021/07/24 22:13:15;;;;;;;96.68;80.12;;;;;;;;;;4264793;33;20708;-86
2021/07/24 22:15:44;;;;;;;107.15;83.50;;;;;;;;;;4261188;33;20097;-86
2021/07/24 22:18:15;;;;;;;113.60;85.00;;;;;;;;;;4257149;33;20065;-86
2021/07/24 22:20:46;;;;;;;117.00;78.20;;;;;;;;;;4263071;33;20114;-85
2021/07/24 22:23:15;;;;;;;114.45;78.80;;;;;;;;;;4264521;33;20046;-86
2021/07/24 22:25:44;;;;;;;108.00;76.60;;;;;;;;;;4265852;33;20125;-85
2021/07/24 22:28:12;;;;;;;131.30;85.70;;;;;;;;;;4254275;33;20200;-85
2021/07/24 22:30:41;;;;;;;128.50;82.43;;;;;;;;;;4247485;33;20665;-85
2021/07/24 22:33:09;;;;;;;127.53;82.28;;;;;;;;;;4262810;33;20071;-85
2021/07/24 22:35:37;;;;;;;122.55;81.00;;;;;;;;;;4261969;33;20212;-86
2021/07/24 22:38:06;;;;;;;127.30;81.07;;;;;;;;;;4261258;33;20601;-85
2021/07/24 22:40:35;;;;;;;118.62;79.30;;;;;;;;;;4253203;33;20113;-86
2021/07/24 22:43:03;;;;;;;116.47;79.43;;;;;;;;;;4264464;33;20425;-85
2021/07/24 22:45:32;;;;;;;110.60;76.93;;;;;;;;;;4266033;33;20053;-85
2021/07/24 22:48:00;;;;;;;109.32;83.05;;;;;;;;;;4253042;33;20102;-84
2021/07/24 22:50:29;;;;;;;108.03;79.57;;;;;;;;;;4261348;33;20042;-85
2021/07/24 22:52:58;;;;;;;99.43;79.30;;;;;;;;;;4263734;33;20069;-85
2021/07/24 22:55:26;;;;;;;99.97;79.43;;;;;;;;;;4257946;33;20045;-85
2021/07/24 22:57:55;;;;;;;96.45;71.53;;;;;;;;;;4265672;33;20087;-85
2021/07/24 23:00:23;;;;;;;100.45;72.60;;;;;;;;;;4257799;33;20177;-86
2021/07/24 23:02:52;;;;;;;97.30;70.68;;;;;;;;;;4256403;33;20101;-86
2021/07/24 23:05:20;;;;;;;95.70;70.97;;;;;;;;;;4257634;33;20113;-86